Time;durP1;ratioP1;P1;durP2;ratioP2;P2;SDS_P1;SDS_P2;PMS_P1;PMS_P2;Temp;Humidity;BMP_temperature;BMP_pressure;BME280_temperature;BME280_humidity;BME280_pressure;Samples;Min_cycle;Max_cycle;Signal;HPM_P1;HPM_P2
2023/01/09 00:00:27;;;;;;;;;4.50;1.75;;;;;8.37;66.07;99461.50;5018962;28;45270;-52
2023/01/09 00:02:53;;;;;;;;;3.75;2.50;;;;;8.30;66.03;99456.44;5019627;28;45479;-51
2023/01/09 00:05:19;;;;;;;;;3.50;0.50;;;;;8.36;65.84;99468.47;5018327;28;46373;-49
2023/01/09 00:07:44;;;;;;;;;1.50;1.50;;;;;8.34;66.01;99475.53;5019558;28;45439;-49
2023/01/09 00:10:11;;;;;;;;;3.50;1.25;;;;;8.23;66.26;99469.72;5019814;28;45373;-53
2023/01/09 00:12:36;;;;;;;;;1.00;1.00;;;;;8.29;66.26;99462.56;5019438;28;45479;-50
2023/01/09 00:15:03;;;;;;;;;3.75;1.00;;;;;8.33;66.09;99465.97;5019703;28;46142;-53
2023/01/09 00:17:29;;;;;;;;;2.00;2.00;;;;;8.28;66.21;99476.53;5019273;28;45232;-51
2023/01/09 00:19:54;;;;;;;;;2.75;1.50;;;;;8.29;66.02;99466.94;5018455;28;45296;-49
2023/01/09 00:22:19;;;;;;;;;4.00;0.00;;;;;8.28;66.20;99475.69;5019579;28;45209;-48
2023/01/09 00:24:45;;;;;;;;;1.00;1.00;;;;;8.27;65.91;99493.13;5019790;28;46603;-52
2023/01/09 00:27:11;;;;;;;;;2.00;2.00;;;;;8.31;65.83;99486.06;5001367;28;45477;-49
2023/01/09 00:29:40;;;;;;;;;2.50;2.00;;;;;8.26;66.04;99475.72;5019758;28;45426;-49
2023/01/09 00:32:08;;;;;;;;;1.00;1.00;;;;;8.27;66.20;99482.66;4998316;28;45439;-52
2023/01/09 00:34:36;;;;;;;;;1.00;1.00;;;;;8.31;66.21;99486.06;5015017;28;46378;-53
2023/01/09 00:37:02;;;;;;;;;3.00;1.00;;;;;8.29;66.30;99500.97;5022280;28;45324;-52
2023/01/09 00:39:28;;;;;;;;;3.25;1.75;;;;;8.29;66.34;99490.50;5023000;28;45253;-50
2023/01/09 00:41:55;;;;;;;;;2.75;1.00;;;;;8.33;66.36;99491.25;5022687;28;45419;-52
2023/01/09 00:44:26;;;;;;;;;4.00;1.50;;;;;8.27;66.15;99479.19;5022835;28;46555;-51
2023/01/09 00:46:58;;;;;;;;;5.25;1.00;;;;;8.24;66.33;99469.66;5022735;28;45285;-52
2023/01/09 00:49:27;;;;;;;;;1.00;1.00;;;;;8.28;66.25;99481.78;5023020;28;45292;-52
2023/01/09 00:51:54;;;;;;;;;2.50;2.00;;;;;8.27;66.41;99466.13;5022689;28;45380;-52
2023/01/09 00:54:19;;;;;;;;;1.00;1.00;;;;;8.28;66.37;99489.63;5022435;28;46318;-51
2023/01/09 00:56:45;;;;;;;;;3.50;2.25;;;;;8.28;66.28;99497.47;5022713;28;45392;-52
2023/01/09 00:59:10;;;;;;;;;2.00;1.00;;;;;8.30;66.41;99490.44;5022724;28;45241;-51
2023/01/09 01:01:35;;;;;;;;;2.00;1.00;;;;;8.26;66.57;99493.19;5022601;28;45151;-50
2023/01/09 01:07:37;;;;;;;;;2.50;2.25;;;;;8.26;66.71;99494.06;5022508;28;45446;-51
2023/01/09 01:09:30;;;;;;;;;6.25;3.50;;;;;8.24;66.24;99498.47;5022640;28;45275;-51
2023/01/09 01:11:55;;;;;;;;;2.75;1.00;;;;;8.24;66.37;99513.31;5021000;28;45226;-49
2023/01/09 01:14:21;;;;;;;;;0.50;0.25;;;;;8.28;66.42;99512.34;5022402;28;46316;-50
2023/01/09 01:16:46;;;;;;;;;4.00;2.50;;;;;8.28;66.43;99505.31;5022229;28;45404;-50
2023/01/09 01:19:11;;;;;;;;;3.75;1.00;;;;;8.31;66.30;99504.38;5022326;28;45233;-49
2023/01/09 01:21:37;;;;;;;;;0.00;0.00;;;;;8.33;66.32;99512.19;5022526;28;45420;-50
2023/01/09 01:24:03;;;;;;;;;2.50;1.00;;;;;8.38;66.06;99515.59;5020721;28;47295;-53
2023/01/09 01:26:28;;;;;;;;;2.50;1.50;;;;;8.39;65.95;99501.56;5022122;28;45206;-48
2023/01/09 01:28:53;;;;;;;;;1.00;1.00;;;;;8.35;66.21;99506.06;5022237;28;45238;-51
2023/01/09 01:31:19;;;;;;;;;2.25;2.00;;;;;8.38;66.15;99510.34;5022338;28;45459;-52
2023/01/09 01:33:44;;;;;;;;;1.00;1.00;;;;;8.40;66.40;99517.28;5021458;28;46912;-52
2023/01/09 01:36:10;;;;;;;;;2.00;1.00;;;;;8.41;66.19;99518.97;5022192;28;45272;-49
2023/01/09 01:38:35;;;;;;;;;1.00;1.00;;;;;8.44;65.99;99511.06;5022119;28;45396;-49
2023/01/09 01:41:02;;;;;;;;;3.00;1.50;;;;;8.39;66.27;99523.41;5021848;28;45452;-47
2023/01/09 01:43:48;;;;;;;;;1.25;1.00;;;;;8.45;66.17;99525.00;5021823;28;46328;-48
2023/01/09 01:46:16;;;;;;;;;3.00;1.00;;;;;8.44;65.94;99515.44;5021864;28;45313;-48
2023/01/09 01:48:42;;;;;;;;;4.50;1.00;;;;;8.45;66.17;99525.00;5022182;28;45220;-49
2023/01/09 01:51:09;;;;;;;;;2.00;1.00;;;;;8.51;65.89;99518.78;5022239;28;45258;-48
2023/01/09 01:53:40;;;;;;;;;2.50;1.00;;;;;8.44;65.92;99516.28;5022485;28;45276;-49
2023/01/09 01:56:12;;;;;;;;;4.50;3.00;;;;;8.47;66.16;99525.00;5022133;28;45224;-53
2023/01/09 01:58:43;;;;;;;;;2.50;1.00;;;;;8.45;66.23;99528.50;5022346;28;45309;-51
2023/01/09 02:01:09;;;;;;;;;4.25;2.00;;;;;8.48;65.85;99530.19;5021969;28;45301;-52
2023/01/09 02:03:37;;;;;;;;;2.75;1.75;;;;;8.45;66.20;99528.50;5021791;28;45328;-50
2023/01/09 02:06:03;;;;;;;;;5.25;3.00;;;;;8.49;66.33;99529.31;5022035;28;45316;-50
2023/01/09 02:08:29;;;;;;;;;5.00;2.00;;;;;8.48;66.35;99530.19;5020842;28;45471;-53
2023/01/09 02:10:55;;;;;;;;;4.75;1.75;;;;;8.40;66.27;99532.09;5021781;28;45248;-53
2023/01/09 02:13:21;;;;;;;;;2.00;2.00;;;;;8.39;66.08;99539.09;5021843;28;46135;-49
2023/01/09 02:16:12;;;;;;;;;3.75;1.00;;;;;8.41;65.95;99533.81;5021880;28;45233;-52
2023/01/09 02:18:46;;;;;;;;;4.50;1.00;;;;;8.38;66.29;99539.16;5021460;28;45405;-50
2023/01/09 02:21:35;;;;;;;;;3.00;1.00;;;;;8.37;66.26;99545.28;5021971;28;45322;-50
2023/01/09 02:24:08;;;;;;;;;2.25;1.00;;;;;8.42;66.43;99552.09;5021144;28;46195;-52
2023/01/09 02:27:11;;;;;;;;;3.50;2.00;;;;;8.42;66.22;99544.25;5021518;28;45415;-51
2023/01/09 02:29:42;;;;;;;;;3.75;2.25;;;;;8.44;66.31;99545.09;5021839;28;45411;-51
2023/01/09 02:32:29;;;;;;;;;3.00;1.75;;;;;8.43;66.54;99553.00;5021430;28;45282;-51
2023/01/09 02:35:22;;;;;;;;;1.50;0.25;;;;;8.48;66.31;99545.91;5021384;28;46393;-53
2023/01/09 02:37:59;;;;;;;;;3.00;1.00;;;;;8.37;66.33;99548.75;5021674;28;45269;-50
2023/01/09 02:40:38;;;;;;;;;4.00;2.00;;;;;8.48;66.37;99560.75;5021494;28;45307;-52
2023/01/09 02:43:06;;;;;;;;;6.50;3.25;;;;;8.48;66.35;99561.63;5021167;28;45316;-48
2023/01/09 02:45:31;;;;;;;;;4.00;1.00;;;;;8.47;66.26;99556.44;5021445;28;46405;-52
2023/01/09 02:47:57;;;;;;;;;2.25;2.00;;;;;8.53;66.37;99564.09;5021062;28;45332;-50
2023/01/09 02:50:31;;;;;;;;;2.50;0.00;;;;;8.49;66.26;99567.69;5021561;28;45685;-48
2023/01/09 02:53:29;;;;;;;;;6.50;2.00;;;;;8.50;66.33;99566.81;5021491;28;45234;-51
2023/01/09 02:56:04;;;;;;;;;3.00;1.50;;;;;8.48;66.52;99560.75;5020970;28;45341;-52
2023/01/09 02:58:39;;;;;;;;;5.00;3.25;;;;;8.49;66.47;99570.31;5020798;28;45512;-50
2023/01/09 03:01:25;;;;;;;;;2.75;1.00;;;;;8.43;66.32;99561.69;5019873;28;45347;-47
2023/01/09 03:04:01;;;;;;;;;4.00;1.25;;;;;8.50;66.44;99551.94;5021231;28;45325;-51
2023/01/09 03:06:40;;;;;;;;;5.50;2.50;;;;;8.52;66.27;99541.47;5021154;28;45336;-51
2023/01/09 03:09:13;;;;;;;;;4.00;2.00;;;;;8.52;66.40;99538.84;5019541;28;45363;-50
2023/01/09 03:11:45;;;;;;;;;4.25;1.75;;;;;8.53;66.34;99538.78;5021094;28;45408;-49
2023/01/09 03:14:15;;;;;;;;;3.00;2.00;;;;;8.52;66.60;99533.59;5019519;28;45383;-50
2023/01/09 03:16:45;;;;;;;;;4.00;2.25;;;;;8.54;66.45;99534.41;5020646;28;45916;-49
2023/01/09 03:19:15;;;;;;;;;4.00;3.75;;;;;8.56;66.20;99540.47;5020618;28;45300;-49
2023/01/09 03:21:42;;;;;;;;;6.00;2.00;;;;;8.54;66.37;99555.34;5021052;28;45302;-49
2023/01/09 03:24:08;;;;;;;;;3.25;1.75;;;;;8.53;66.57;99548.38;5019594;28;45638;-51
2023/01/09 03:26:34;;;;;;;;;1.75;1.75;;;;;8.49;66.31;99573.81;5020556;28;45251;-47
2023/01/09 03:28:59;;;;;;;;;3.00;2.75;;;;;8.54;66.62;99564.09;5020702;28;45250;-51
2023/01/09 03:31:25;;;;;;;;;2.25;2.00;;;;;8.50;66.63;99565.03;5020838;28;45565;-52
2023/01/09 03:33:50;;;;;;;;;2.25;1.00;;;;;8.52;66.33;99573.72;5020628;28;45305;-50
2023/01/09 03:36:19;;;;;;;;;3.00;2.00;;;;;8.50;66.29;99562.41;5020649;28;47130;-49
2023/01/09 03:38:44;;;;;;;;;2.00;1.25;;;;;8.48;66.53;99571.22;5020741;28;45305;-49
2023/01/09 03:41:09;;;;;;;;;2.75;1.75;;;;;8.44;66.66;99570.44;5020323;28;45293;-49
2023/01/09 03:43:35;;;;;;;;;2.25;1.00;;;;;8.49;66.39;99567.69;5020787;28;45244;-49
2023/01/09 03:46:01;;;;;;;;;3.25;1.50;;;;;8.51;66.39;99592.09;5020555;28;45953;-49
2023/01/09 03:48:27;;;;;;;;;3.00;2.25;;;;;8.49;66.45;99580.78;5020308;28;45217;-48
2023/01/09 03:50:53;;;;;;;;;5.25;1.00;;;;;8.47;66.38;99582.63;5020531;28;45434;-50
2023/01/09 03:53:21;;;;;;;;;4.00;1.00;;;;;8.49;66.49;99600.00;5020659;28;45458;-50
2023/01/09 03:55:49;;;;;;;;;3.00;2.25;;;;;8.47;66.63;99585.22;5018960;28;48260;-50
2023/01/09 03:58:15;;;;;;;;;2.50;1.50;;;;;8.51;66.40;99594.72;5020414;28;45403;-49
2023/01/09 04:00:42;;;;;;;;;6.50;3.75;;;;;8.45;66.48;99593.94;5018892;28;45255;-51
2023/01/09 04:03:08;;;;;;;;;3.75;1.25;;;;;8.48;66.56;99584.31;5020025;28;45229;-50
2023/01/09 04:05:34;;;;;;;;;1.50;0.25;;;;;8.50;66.69;99579.91;5018877;28;48461;-48
2023/01/09 04:08:00;;;;;;;;;3.00;0.00;;;;;8.54;66.65;99589.41;5020202;28;45288;-52
2023/01/09 04:10:25;;;;;;;;;4.00;3.00;;;;;8.55;66.43;99592.00;5019103;28;45412;-47
2023/01/09 04:12:51;;;;;;;;;2.00;1.50;;;;;8.56;66.48;99601.56;5020162;28;45528;-50
2023/01/09 04:15:16;;;;;;;;;1.00;1.00;;;;;8.57;66.44;99605.06;5020022;28;46261;-50
2023/01/09 04:17:41;;;;;;;;;3.50;2.00;;;;;8.59;66.35;99605.84;5019851;28;45466;-49
2023/01/09 04:20:08;;;;;;;;;2.00;1.00;;;;;8.58;66.45;99620.72;5020192;28;45233;-51
2023/01/09 04:22:33;;;;;;;;;3.25;2.00;;;;;8.61;66.47;99619.78;5020057;28;45487;-51
2023/01/09 04:24:59;;;;;;;;;2.50;2.50;;;;;8.62;66.69;99621.50;5018585;28;48432;-49
2023/01/09 04:27:24;;;;;;;;;4.50;0.75;;;;;8.56;66.50;99621.66;5019898;28;45420;-47
2023/01/09 04:29:49;;;;;;;;;2.25;2.00;;;;;8.52;66.50;99628.72;5020322;28;45360;-49
2023/01/09 04:32:15;;;;;;;;;2.00;2.00;;;;;8.58;66.25;99625.97;5018362;28;45590;-50
2023/01/09 04:34:40;;;;;;;;;1.75;1.50;;;;;8.60;66.69;99628.53;5019707;28;46329;-47
2023/01/09 04:37:06;;;;;;;;;4.00;2.00;;;;;8.56;66.91;99648.69;5019860;28;45291;-51
2023/01/09 04:39:31;;;;;;;;;1.75;0.25;;;;;8.60;66.54;99641.63;5020141;28;45140;-51
2023/01/09 04:41:56;;;;;;;;;2.75;2.50;;;;;8.58;66.64;99646.06;5019490;28;45230;-52
2023/01/09 04:44:25;;;;;;;;;3.00;1.50;;;;;8.61;66.76;99631.09;5019682;28;45977;-48
2023/01/09 04:46:51;;;;;;;;;4.00;2.25;;;;;8.63;66.85;99623.25;5018248;28;45405;-51
2023/01/09 04:49:17;;;;;;;;;2.50;1.75;;;;;8.63;66.72;99631.09;5019764;28;45260;-53
2023/01/09 04:51:43;;;;;;;;;3.75;2.75;;;;;8.64;66.61;99627.59;5018333;28;45613;-49
2023/01/09 04:54:08;;;;;;;;;1.00;1.00;;;;;8.69;66.61;99630.06;5019447;28;45339;-53
2023/01/09 04:56:34;;;;;;;;;3.25;1.00;;;;;8.68;66.59;99624.00;5019750;28;45241;-50
2023/01/09 04:59:00;;;;;;;;;3.25;1.50;;;;;8.69;66.63;99630.06;5019772;28;45479;-50
2023/01/09 05:01:25;;;;;;;;;3.25;1.00;;;;;8.69;66.61;99616.97;5019174;28;45430;-51
2023/01/09 05:03:50;;;;;;;;;2.00;2.00;;;;;8.69;66.71;99630.94;5019546;28;46185;-52
2023/01/09 05:06:16;;;;;;;;;1.00;1.00;;;;;8.68;66.54;99617.88;5019465;28;45208;-52
2023/01/09 05:08:41;;;;;;;;;2.75;2.75;;;;;8.73;66.32;99622.13;5019551;28;45217;-52
2023/01/09 05:11:07;;;;;;;;;1.00;1.00;;;;;8.74;66.59;99626.47;5019431;28;45540;-50
2023/01/09 05:13:32;;;;;;;;;3.50;1.25;;;;;8.76;66.40;99645.59;5018206;28;45251;-50
2023/01/09 05:15:57;;;;;;;;;6.50;0.75;;;;;8.74;66.38;99639.56;5019372;28;45227;-48
2023/01/09 05:18:23;;;;;;;;;2.00;1.00;;;;;8.78;66.50;99642.97;5019185;28;45226;-50
2023/01/09 05:20:48;;;;;;;;;2.25;1.00;;;;;8.73;66.65;99677.13;5019152;28;45525;-51
2023/01/09 05:23:13;;;;;;;;;2.75;1.25;;;;;8.73;66.66;99655.28;5022673;28;46136;-51
2023/01/09 05:25:39;;;;;;;;;3.50;2.75;;;;;8.74;66.55;99642.19;5022646;28;45202;-52
2023/01/09 05:28:04;;;;;;;;;3.50;2.75;;;;;8.77;66.62;99644.72;5022772;28;45221;-48
2023/01/09 05:30:29;;;;;;;;;1.00;1.00;;;;;8.80;66.42;99642.91;5022533;28;45230;-52
2023/01/09 05:32:55;;;;;;;;;4.50;1.25;;;;;8.81;66.47;99642.88;5022391;28;46189;-48
2023/01/09 05:35:20;;;;;;;;;2.50;2.00;;;;;8.82;66.36;99654.19;5022442;28;45460;-49
2023/01/09 05:37:46;;;;;;;;;2.00;0.75;;;;;8.83;66.25;99659.44;5022825;28;45387;-49
2023/01/09 05:40:12;;;;;;;;;1.00;1.00;;;;;8.81;66.55;99663.84;5021253;28;45452;-49
2023/01/09 05:42:37;;;;;;;;;4.25;2.00;;;;;8.82;66.36;99669.91;5022127;28;45830;-50
2023/01/09 05:45:03;;;;;;;;;2.00;1.00;;;;;8.78;66.50;99680.50;5021076;28;45340;-48
2023/01/09 05:47:29;;;;;;;;;3.00;1.50;;;;;8.80;66.44;99674.34;5022325;28;45392;-50
2023/01/09 05:49:55;;;;;;;;;3.00;1.00;;;;;8.83;66.36;99676.88;5022173;28;45493;-49
2023/01/09 05:52:21;;;;;;;;;1.50;0.50;;;;;8.86;66.04;99679.44;5022428;28;45322;-51
2023/01/09 05:54:46;;;;;;;;;3.25;1.75;;;;;8.84;66.16;99697.84;5022184;28;45281;-50
2023/01/09 05:57:12;;;;;;;;;1.75;1.00;;;;;8.85;66.42;99691.69;5022409;28;45278;-51
2023/01/09 05:59:37;;;;;;;;;1.00;1.00;;;;;8.88;66.39;99693.34;5022163;28;45467;-52
2023/01/09 06:02:03;;;;;;;;;2.50;0.25;;;;;8.88;66.28;99696.84;5022043;28;45258;-50
2023/01/09 06:04:28;;;;;;;;;0.25;0.25;;;;;8.87;66.14;99695.13;5022029;28;45427;-50
2023/01/09 06:06:54;;;;;;;;;3.25;1.25;;;;;8.91;66.22;99688.91;5022499;28;45242;-51
2023/01/09 06:09:20;;;;;;;;;3.75;1.50;;;;;8.96;66.09;99695.81;5021930;28;45562;-48
2023/01/09 06:11:45;;;;;;;;;4.25;0.75;;;;;8.96;66.19;99706.31;5021845;28;45364;-49
2023/01/09 06:14:10;;;;;;;;;6.00;1.00;;;;;8.94;66.09;99685.34;5021454;28;45327;-48
2023/01/09 06:16:36;;;;;;;;;3.00;0.75;;;;;8.98;65.87;99696.63;5021884;28;45316;-51
2023/01/09 06:19:01;;;;;;;;;2.75;0.00;;;;;8.93;65.87;99687.13;5020139;28;45570;-49
2023/01/09 06:21:28;;;;;;;;;4.00;1.00;;;;;8.95;65.87;99708.03;5037685;28;45716;-53
2023/01/09 06:23:54;;;;;;;;;2.00;2.00;;;;;8.94;66.06;99693.22;5021661;28;45525;-52
2023/01/09 06:26:19;;;;;;;;;1.50;1.00;;;;;8.98;65.63;99691.38;5020513;28;45301;-50
2023/01/09 06:28:45;;;;;;;;;3.50;1.50;;;;;8.93;65.61;99694.97;5021537;28;45298;-53
2023/01/09 06:31:10;;;;;;;;;1.50;0.00;;;;;8.97;65.66;99711.50;5015541;28;45282;-47
2023/01/09 06:33:35;;;;;;;;;0.50;0.50;;;;;8.91;65.84;99719.50;5006343;28;45436;-49
2023/01/09 06:36:01;;;;;;;;;1.00;0.00;;;;;8.93;65.65;99721.19;5036601;28;45230;-48
2023/01/09 06:38:26;;;;;;;;;1.50;1.00;;;;;8.96;65.29;99717.63;5021398;28;45402;-49
2023/01/09 06:40:51;;;;;;;;;1.50;1.25;;;;;8.95;65.58;99734.25;5020213;28;45403;-47
2023/01/09 06:43:17;;;;;;;;;1.00;1.00;;;;;8.98;65.42;99735.94;5021600;28;45223;-49
2023/01/09 06:45:43;;;;;;;;;2.00;0.25;;;;;9.02;65.35;99755.91;5020548;28;45277;-46
2023/01/09 06:48:09;;;;;;;;;2.00;0.00;;;;;8.99;65.19;99745.53;5016189;28;45240;-46
2023/01/09 06:50:35;;;;;;;;;2.50;0.50;;;;;9.01;65.23;99749.81;5015139;28;45498;-48
2023/01/09 06:53:00;;;;;;;;;1.00;1.00;;;;;9.03;65.20;99753.28;5020717;28;45498;-47
2023/01/09 06:55:25;;;;;;;;;5.00;1.00;;;;;9.04;65.03;99762.00;5021240;28;45704;-47
2023/01/09 06:57:51;;;;;;;;;1.50;1.00;;;;;9.03;65.12;99774.25;5020306;28;45539;-50
2023/01/09 07:00:17;;;;;;;;;0.50;0.00;;;;;8.98;65.34;99773.50;5020612;28;45371;-48
2023/01/09 07:02:42;;;;;;;;;0.50;0.00;;;;;8.96;65.10;99753.47;5020060;28;45424;-49
2023/01/09 07:05:10;;;;;;;;;0.75;0.75;;;;;9.07;64.85;99769.81;5017406;28;45312;-50
2023/01/09 07:07:35;;;;;;;;;2.00;1.00;;;;;9.09;64.65;99770.59;5014767;28;45538;-53
2023/01/09 07:10:00;;;;;;;;;0.25;0.00;;;;;9.07;64.95;99796.00;5019629;28;46541;-52
2023/01/09 07:12:26;;;;;;;;;3.00;0.00;;;;;9.08;64.71;99792.47;5019163;28;45183;-52
2023/01/09 07:14:51;;;;;;;;;3.00;1.00;;;;;9.05;64.38;99785.53;5020911;28;45242;-52
2023/01/09 07:17:16;;;;;;;;;1.50;0.25;;;;;9.01;64.65;99786.50;5020342;28;45364;-52
2023/01/09 07:19:42;;;;;;;;;2.50;0.75;;;;;9.02;64.76;99785.63;5020758;28;45341;-53
2023/01/09 07:22:07;;;;;;;;;0.25;0.25;;;;;9.05;64.41;99771.59;5020626;28;45423;-51
2023/01/09 07:24:33;;;;;;;;;1.75;1.00;;;;;9.06;64.44;99781.19;5020789;28;45374;-53
2023/01/09 07:26:58;;;;;;;;;1.25;0.25;;;;;9.05;64.44;99782.91;5020465;28;45384;-53
2023/01/09 07:29:23;;;;;;;;;3.00;1.75;;;;;9.04;64.55;99782.97;5020761;28;45227;-53
2023/01/09 07:31:48;;;;;;;;;3.75;1.00;;;;;9.03;64.29;99791.72;5020077;28;45401;-54
2023/01/09 07:34:14;;;;;;;;;1.00;1.00;;;;;8.99;64.25;99788.28;5020753;28;45302;-54
2023/01/09 07:36:39;;;;;;;;;0.25;0.25;;;;;8.94;64.32;99769.19;5035775;28;45475;-52
2023/01/09 07:39:05;;;;;;;;;2.00;1.00;;;;;9.01;64.02;99785.66;5018027;28;46129;-50
2023/01/09 07:41:30;;;;;;;;;2.00;1.25;;;;;9.01;63.93;99788.28;5029791;28;45578;-49
2023/01/09 07:43:55;;;;;;;;;0.00;0.00;;;;;9.01;63.78;99769.94;5001975;28;45669;-51
2023/01/09 07:46:21;;;;;;;;;0.00;0.00;;;;;8.97;63.85;99805.84;5033446;28;45464;-51
2023/01/09 07:48:46;;;;;;;;;4.75;1.25;;;;;8.95;63.86;99805.00;5009964;28;46142;-54
2023/01/09 07:51:12;;;;;;;;;3.00;1.00;;;;;8.91;63.96;99790.25;5005090;28;45435;-53
2023/01/09 07:53:37;;;;;;;;;2.75;0.00;;;;;8.91;63.83;99796.34;5009978;28;45325;-54
2023/01/09 07:56:03;;;;;;;;;2.25;1.00;;;;;8.89;64.25;99802.50;5019352;28;45451;-53
2023/01/09 07:58:28;;;;;;;;;0.00;0.00;;;;;8.92;63.81;99833.91;5016549;28;46125;-53
2023/01/09 08:00:54;;;;;;;;;2.25;1.00;;;;;8.93;63.81;99810.28;5018381;28;45336;-51
2023/01/09 08:03:19;;;;;;;;;1.00;0.50;;;;;8.94;63.59;99837.34;5017963;28;45447;-51
2023/01/09 08:05:45;;;;;;;;;0.50;0.00;;;;;8.91;63.52;99842.66;5017672;28;45397;-53
2023/01/09 08:08:10;;;;;;;;;1.00;0.75;;;;;8.90;63.64;99854.03;5020306;28;46088;-52
2023/01/09 08:10:35;;;;;;;;;2.50;1.00;;;;;8.87;63.64;99844.47;5019980;28;45161;-53
2023/01/09 08:13:01;;;;;;;;;0.00;0.00;;;;;8.89;63.54;99855.78;5018854;28;45396;-51
2023/01/09 08:15:26;;;;;;;;;2.00;0.75;;;;;8.83;63.77;99862.91;5017570;28;45533;-51
2023/01/09 08:17:51;;;;;;;;;0.50;0.50;;;;;8.84;63.64;99867.25;5019268;28;46760;-53
2023/01/09 08:20:17;;;;;;;;;1.75;1.50;;;;;8.79;63.76;99864.72;5016863;28;45241;-49
2023/01/09 08:22:49;;;;;;;;;2.25;1.00;;;;;8.84;63.72;99859.41;5008252;28;45303;-53
2023/01/09 08:25:15;;;;;;;;;2.25;1.25;;;;;8.84;63.77;99869.88;5016835;28;45333;-49
2023/01/09 08:27:41;;;;;;;;;1.75;0.25;;;;;8.83;63.83;99873.38;4999220;28;45439;-49
2023/01/09 08:30:08;;;;;;;;;0.00;0.00;;;;;8.84;63.53;99875.13;4998284;28;45322;-52
2023/01/09 08:32:34;;;;;;;;;4.50;1.50;;;;;8.84;63.33;99901.31;5000200;28;45175;-52
2023/01/09 08:34:59;;;;;;;;;1.75;1.00;;;;;8.85;63.43;99889.94;5002217;28;45530;-52
2023/01/09 08:37:25;;;;;;;;;2.00;0.00;;;;;8.82;63.43;99892.59;5015046;28;46237;-51
2023/01/09 08:39:52;;;;;;;;;1.50;1.00;;;;;8.83;63.55;99908.31;5025206;28;45271;-53
2023/01/09 08:47:45;;;;;;;;;1.00;1.00;;;;;8.81;63.85;99896.16;4999173;28;45310;-52
2023/01/09 08:50:10;;;;;;;;;1.50;1.00;;;;;8.88;63.47;99914.31;4999815;28;45263;-53
2023/01/09 08:52:36;;;;;;;;;0.00;0.00;;;;;8.90;63.73;99909.06;4999831;28;45510;-51
2023/01/09 08:55:01;;;;;;;;;1.00;1.00;;;;;8.91;63.58;99895.06;4998538;28;45253;-52
2023/01/09 08:57:26;;;;;;;;;2.00;1.00;;;;;9.00;63.30;99917.59;5001727;28;45405;-52
2023/01/09 08:59:52;;;;;;;;;2.25;0.75;;;;;8.96;63.45;99918.56;5003179;28;45269;-52
2023/01/09 09:02:17;;;;;;;;;0.75;0.75;;;;;8.99;63.29;99921.94;5003189;28;45293;-51
2023/01/09 09:04:43;;;;;;;;;4.00;1.25;;;;;9.00;63.44;99930.69;5003284;28;45377;-52
2023/01/09 09:07:08;;;;;;;;;1.25;1.00;;;;;8.98;63.24;99922.88;5002963;28;46016;-51
2023/01/09 09:09:33;;;;;;;;;3.50;0.75;;;;;9.01;63.30;99945.53;5003201;28;45270;-51
2023/01/09 09:11:59;;;;;;;;;1.75;1.75;;;;;9.02;63.29;99935.00;5002998;28;45392;-51
2023/01/09 09:17:08;;;;;;;;;2.00;0.25;;;;;8.99;63.08;99956.03;5002585;28;45357;-53
2023/01/09 09:19:33;;;;;;;;;0.00;0.00;;;;;9.03;63.25;99962.94;4992734;28;45816;-52
2023/01/09 09:21:59;;;;;;;;;0.50;0.00;;;;;9.05;62.98;99949.81;4985347;28;45397;-53
2023/01/09 09:24:24;;;;;;;;;1.25;1.25;;;;;9.05;63.11;99976.00;5001680;28;45547;-52
2023/01/09 09:26:49;;;;;;;;;2.00;1.00;;;;;9.02;63.03;99963.84;5002652;28;46215;-50
2023/01/09 09:29:15;;;;;;;;;1.25;0.00;;;;;9.09;62.87;99978.56;5003006;28;45251;-52
2023/01/09 09:31:40;;;;;;;;;2.00;0.00;;;;;9.10;63.42;99980.25;5002528;28;45422;-50
2023/01/09 09:34:06;;;;;;;;;0.00;0.00;;;;;9.12;63.13;99988.09;5002670;28;45377;-51
2023/01/09 09:36:32;;;;;;;;;0.00;0.00;;;;;9.15;62.98;99987.19;5001193;28;46589;-52
2023/01/09 09:38:57;;;;;;;;;1.25;0.00;;;;;9.17;62.83;99985.38;5000209;28;45437;-51
2023/01/09 09:47:24;;;;;;;;;1.00;1.00;;;;;9.23;63.41;100011.47;4991644;28;45399;-52
2023/01/09 09:50:23;;;;;;;;;0.00;0.00;;;;;9.22;63.37;99999.25;5002408;28;45559;-53
2023/01/09 09:53:43;;;;;;;;;2.75;0.75;;;;;9.29;63.17;100008.72;4984682;28;45446;-52
2023/01/09 09:56:15;;;;;;;;;0.75;0.75;;;;;9.30;63.27;100034.06;4902936;28;45676;-50
2023/01/09 09:58:46;;;;;;;;;0.00;0.00;;;;;9.33;62.90;100015.63;4990355;28;46362;-51
2023/01/09 10:01:23;;;;;;;;;1.00;1.00;;;;;9.37;62.93;100013.81;4984509;28;45412;-53
2023/01/09 10:03:52;;;;;;;;;1.50;1.00;;;;;9.38;62.84;100042.66;5002445;28;45357;-53
2023/01/09 10:06:28;;;;;;;;;0.00;0.00;;;;;9.37;63.14;100045.28;5002281;28;45556;-52
2023/01/09 10:09:03;;;;;;;;;3.00;0.00;;;;;9.41;62.83;100046.97;5000560;28;46186;-52
2023/01/09 10:11:38;;;;;;;;;0.75;0.00;;;;;9.49;62.48;100024.03;5002122;28;45328;-50
2023/01/09 10:14:03;;;;;;;;;4.75;1.00;;;;;9.53;62.89;100044.06;5002079;28;45214;-53
2023/01/09 10:16:53;;;;;;;;;0.00;0.00;;;;;9.64;62.73;100058.72;5001822;28;45395;-51
2023/01/09 10:19:33;;;;;;;;;1.50;1.00;;;;;9.70;62.70;100054.22;4983414;28;45438;-52
2023/01/09 10:22:18;;;;;;;;;1.50;0.50;;;;;9.85;62.59;100057.38;4997712;28;45278;-52
2023/01/09 10:24:56;;;;;;;;;3.25;1.00;;;;;9.90;62.62;100055.53;5000938;28;45334;-51
2023/01/09 10:27:24;;;;;;;;;0.00;0.00;;;;;10.00;62.74;100056.19;4988707;28;45577;-50
2023/01/09 10:30:05;;;;;;;;;1.00;0.00;;;;;10.12;62.45;100061.16;5001605;28;46111;-50
2023/01/09 10:32:52;;;;;;;;;0.75;0.00;;;;;10.20;62.61;100064.47;5001760;28;45447;-51
2023/01/09 10:35:42;;;;;;;;;0.50;0.50;;;;;10.32;62.43;100073.81;4982738;28;45386;-49
2023/01/09 10:38:13;;;;;;;;;0.00;0.00;;;;;10.40;62.58;100076.28;5001736;28;45295;-49
2023/01/09 10:40:48;;;;;;;;;1.00;0.50;;;;;10.44;61.86;100062.19;4996001;28;46245;-48
2023/01/09 10:43:28;;;;;;;;;1.50;0.00;;;;;10.53;62.57;100087.38;5002164;28;45354;-50
2023/01/09 10:46:02;;;;;;;;;0.00;0.00;;;;;10.57;61.69;100089.88;5001772;28;45222;-52
2023/01/09 10:48:36;;;;;;;;;0.00;0.00;;;;;10.61;61.85;100095.91;5021304;28;45209;-49
2023/01/09 10:51:13;;;;;;;;;0.00;0.00;;;;;10.65;62.25;100094.94;5006162;28;46537;-52
2023/01/09 10:53:42;;;;;;;;;0.75;0.00;;;;;10.69;62.01;100085.22;5011395;28;45238;-51
2023/01/09 10:56:13;;;;;;;;;1.25;1.25;;;;;10.71;61.81;100114.97;5004186;28;45528;-53
2023/01/09 10:58:38;;;;;;;;;2.00;0.00;;;;;10.70;61.80;100108.84;5001427;28;45391;-51
2023/01/09 11:01:04;;;;;;;;;2.00;1.00;;;;;10.78;61.37;100089.38;5000836;28;45807;-51
2023/01/09 11:03:30;;;;;;;;;1.75;1.00;;;;;10.82;61.72;100101.56;5001578;28;45263;-54
2023/01/09 11:05:57;;;;;;;;;0.75;0.75;;;;;10.92;61.68;100094.28;5016441;28;45663;-50
2023/01/09 11:08:40;;;;;;;;;1.00;0.00;;;;;11.00;61.58;100108.09;5001485;28;45432;-55
2023/01/09 11:11:07;;;;;;;;;2.75;0.00;;;;;11.02;61.13;100098.41;5000916;28;46161;-52
2023/01/09 11:13:35;;;;;;;;;0.00;0.00;;;;;11.09;61.09;100105.22;5001078;28;45252;-50
2023/01/09 11:16:10;;;;;;;;;1.00;0.75;;;;;11.10;60.61;100104.31;5001097;28;45430;-54
2023/01/09 11:18:47;;;;;;;;;1.75;0.00;;;;;11.11;60.70;100110.47;5005572;28;45317;-53
2023/01/09 11:21:25;;;;;;;;;0.00;0.00;;;;;11.10;60.56;100108.72;5010148;28;46826;-52
2023/01/09 11:23:50;;;;;;;;;0.50;0.00;;;;;11.03;60.41;100114.16;5000941;28;45358;-52
2023/01/09 11:26:27;;;;;;;;;2.00;1.00;;;;;11.05;60.48;100101.81;5001261;28;45297;-54
2023/01/09 11:29:11;;;;;;;;;1.50;1.00;;;;;11.10;60.24;100106.09;5000792;28;45485;-54
2023/01/09 11:31:38;;;;;;;;;1.00;0.50;;;;;11.04;60.14;100097.47;5000442;28;46164;-53
2023/01/09 11:34:13;;;;;;;;;1.25;1.00;;;;;11.11;59.72;100103.41;5003569;28;45357;-53
2023/01/09 11:36:39;;;;;;;;;1.00;1.00;;;;;11.09;59.92;100104.38;5000790;28;45317;-52
2023/01/09 11:39:04;;;;;;;;;1.50;1.00;;;;;11.11;59.97;100111.31;5005193;28;45274;-51
2023/01/09 11:41:34;;;;;;;;;1.00;0.00;;;;;11.13;60.12;100117.41;5006639;28;46268;-54
2023/01/09 11:44:01;;;;;;;;;1.00;0.00;;;;;11.17;60.28;100105.88;5000838;28;45338;-53
2023/01/09 11:46:40;;;;;;;;;0.75;0.00;;;;;11.27;59.97;100111.78;4999158;28;45390;-52
2023/01/09 11:49:12;;;;;;;;;1.75;0.00;;;;;11.32;59.98;100112.50;5000593;28;45406;-52
2023/01/09 11:51:38;;;;;;;;;4.50;0.00;;;;;11.38;59.73;100101.81;4987802;28;46339;-50
2023/01/09 11:54:13;;;;;;;;;1.50;0.50;;;;;11.53;59.76;100116.31;4998983;28;45368;-53
2023/01/09 11:56:39;;;;;;;;;0.00;0.00;;;;;11.59;59.55;100124.94;5000523;28;45351;-53
2023/01/09 11:59:15;;;;;;;;;1.00;1.00;;;;;11.68;59.83;100127.31;5000262;28;45398;-53
2023/01/09 12:01:59;;;;;;;;;0.00;0.00;;;;;11.75;60.41;100130.59;5000235;28;45298;-50